sensor_id;sensor_type;location;lat;lon;timestamp;P1;durP1;ratioP1;P2;durP2;ratioP2
77298;SDS011;66361;52.034;20.656;2023-11-22T00:03:57;12.45;;;8.20;;
77298;SDS011;66361;52.034;20.656;2023-11-22T00:08:01;10.05;;;8.65;;
77298;SDS011;66361;52.034;20.656;2023-11-22T00:12:05;12.48;;;8.30;;
77298;SDS011;66361;52.034;20.656;2023-11-22T00:16:09;19.50;;;10.50;;
77298;SDS011;66361;52.034;20.656;2023-11-22T00:20:12;12.60;;;8.45;;
77298;SDS011;66361;52.034;20.656;2023-11-22T00:24:16;10.80;;;8.57;;
77298;SDS011;66361;52.034;20.656;2023-11-22T00:28:21;11.00;;;6.53;;
77298;SDS011;66361;52.034;20.656;2023-11-22T00:32:24;13.10;;;10.13;;
77298;SDS011;66361;52.034;20.656;2023-11-22T00:40:31;11.00;;;6.55;;
77298;SDS011;66361;52.034;20.656;2023-11-22T00:44:36;9.93;;;6.75;;
77298;SDS011;66361;52.034;20.656;2023-11-22T00:48:39;14.70;;;9.43;;
77298;SDS011;66361;52.034;20.656;2023-11-22T00:52:42;9.07;;;7.10;;
77298;SDS011;66361;52.034;20.656;2023-11-22T01:04:53;11.13;;;7.60;;
77298;SDS011;66361;52.034;20.656;2023-11-22T01:08:57;11.38;;;9.52;;
77298;SDS011;66361;52.034;20.656;2023-11-22T01:13:00;9.35;;;6.93;;
77298;SDS011;66361;52.034;20.656;2023-11-22T01:17:04;12.27;;;11.10;;
77298;SDS011;66361;52.034;20.656;2023-11-22T01:21:07;10.27;;;7.10;;
77298;SDS011;66361;52.034;20.656;2023-11-22T01:25:11;11.93;;;6.32;;
77298;SDS011;66361;52.034;20.656;2023-11-22T01:29:17;9.95;;;6.78;;
77298;SDS011;66361;52.034;20.656;2023-11-22T01:33:21;7.40;;;6.70;;
77298;SDS011;66361;52.034;20.656;2023-11-22T01:37:24;9.27;;;7.00;;
77298;SDS011;66361;52.034;20.656;2023-11-22T01:41:27;9.65;;;8.38;;
77298;SDS011;66361;52.034;20.656;2023-11-22T01:45:31;7.00;;;6.22;;
77298;SDS011;66361;52.034;20.656;2023-11-22T01:49:36;4.82;;;4.35;;
77298;SDS011;66361;52.034;20.656;2023-11-22T01:53:39;9.40;;;6.30;;
77298;SDS011;66361;52.034;20.656;2023-11-22T01:57:43;7.82;;;6.32;;
77298;SDS011;66361;52.034;20.656;2023-11-22T02:01:46;10.07;;;6.97;;
77298;SDS011;66361;52.034;20.656;2023-11-22T02:05:52;8.65;;;7.20;;
77298;SDS011;66361;52.034;20.656;2023-11-22T02:09:56;9.15;;;6.63;;
77298;SDS011;66361;52.034;20.656;2023-11-22T02:14:01;6.57;;;5.57;;
77298;SDS011;66361;52.034;20.656;2023-11-22T02:18:04;10.70;;;9.70;;
77298;SDS011;66361;52.034;20.656;2023-11-22T02:22:15;9.88;;;6.05;;
77298;SDS011;66361;52.034;20.656;2023-11-22T02:26:19;7.78;;;5.00;;
77298;SDS011;66361;52.034;20.656;2023-11-22T02:30:22;8.93;;;6.20;;
77298;SDS011;66361;52.034;20.656;2023-11-22T02:34:27;8.52;;;5.10;;
77298;SDS011;66361;52.034;20.656;2023-11-22T02:38:30;10.00;;;6.63;;
77298;SDS011;66361;52.034;20.656;2023-11-22T02:42:38;9.32;;;5.82;;
77298;SDS011;66361;52.034;20.656;2023-11-22T02:46:41;6.75;;;5.13;;
77298;SDS011;66361;52.034;20.656;2023-11-22T02:50:44;7.18;;;5.78;;
77298;SDS011;66361;52.034;20.656;2023-11-22T02:54:49;8.38;;;6.65;;
77298;SDS011;66361;52.034;20.656;2023-11-22T02:58:53;6.85;;;5.57;;
77298;SDS011;66361;52.034;20.656;2023-11-22T03:02:57;8.45;;;4.40;;
77298;SDS011;66361;52.034;20.656;2023-11-22T03:07:00;7.18;;;5.82;;
77298;SDS011;66361;52.034;20.656;2023-11-22T03:11:03;6.60;;;5.85;;
77298;SDS011;66361;52.034;20.656;2023-11-22T03:15:09;6.30;;;5.78;;
77298;SDS011;66361;52.034;20.656;2023-11-22T03:19:13;6.05;;;5.20;;
77298;SDS011;66361;52.034;20.656;2023-11-22T03:23:16;6.88;;;5.95;;
77298;SDS011;66361;52.034;20.656;2023-11-22T03:27:26;7.57;;;6.00;;
77298;SDS011;66361;52.034;20.656;2023-11-22T03:31:30;7.20;;;6.50;;
77298;SDS011;66361;52.034;20.656;2023-11-22T03:35:33;8.35;;;5.32;;
77298;SDS011;66361;52.034;20.656;2023-11-22T03:39:36;5.40;;;4.90;;
77298;SDS011;66361;52.034;20.656;2023-11-22T03:43:39;8.68;;;5.70;;
77298;SDS011;66361;52.034;20.656;2023-11-22T03:47:45;9.02;;;5.57;;
77298;SDS011;66361;52.034;20.656;2023-11-22T03:51:48;9.45;;;6.07;;
77298;SDS011;66361;52.034;20.656;2023-11-22T03:55:52;7.32;;;5.30;;
77298;SDS011;66361;52.034;20.656;2023-11-22T03:59:55;6.47;;;5.40;;
77298;SDS011;66361;52.034;20.656;2023-11-22T04:04:00;8.07;;;6.25;;
77298;SDS011;66361;52.034;20.656;2023-11-22T04:08:04;7.10;;;6.43;;
77298;SDS011;66361;52.034;20.656;2023-11-22T04:12:07;7.03;;;5.40;;
77298;SDS011;66361;52.034;20.656;2023-11-22T04:16:10;6.20;;;4.60;;
77298;SDS011;66361;52.034;20.656;2023-11-22T04:20:19;6.95;;;6.07;;
77298;SDS011;66361;52.034;20.656;2023-11-22T04:24:22;9.25;;;4.65;;
77298;SDS011;66361;52.034;20.656;2023-11-22T04:28:24;6.22;;;3.55;;
77298;SDS011;66361;52.034;20.656;2023-11-22T04:32:27;4.75;;;4.32;;
77298;SDS011;66361;52.034;20.656;2023-11-22T04:36:32;6.10;;;5.47;;
77298;SDS011;66361;52.034;20.656;2023-11-22T04:40:35;8.43;;;6.65;;
77298;SDS011;66361;52.034;20.656;2023-11-22T04:44:39;7.53;;;5.53;;
77298;SDS011;66361;52.034;20.656;2023-11-22T04:48:42;5.93;;;5.35;;
77298;SDS011;66361;52.034;20.656;2023-11-22T04:52:47;9.75;;;6.47;;
77298;SDS011;66361;52.034;20.656;2023-11-22T04:56:50;5.72;;;4.03;;
77298;SDS011;66361;52.034;20.656;2023-11-22T05:00:53;7.95;;;7.15;;
77298;SDS011;66361;52.034;20.656;2023-11-22T05:04:56;6.72;;;5.88;;
77298;SDS011;66361;52.034;20.656;2023-11-22T05:09:01;8.43;;;7.13;;
77298;SDS011;66361;52.034;20.656;2023-11-22T05:13:05;4.38;;;3.97;;
77298;SDS011;66361;52.034;20.656;2023-11-22T05:17:07;6.68;;;4.97;;
77298;SDS011;66361;52.034;20.656;2023-11-22T05:21:11;6.57;;;5.90;;
77298;SDS011;66361;52.034;20.656;2023-11-22T05:25:16;6.97;;;5.88;;
77298;SDS011;66361;52.034;20.656;2023-11-22T05:29:20;6.78;;;5.57;;
77298;SDS011;66361;52.034;20.656;2023-11-22T05:33:22;6.65;;;5.88;;
77298;SDS011;66361;52.034;20.656;2023-11-22T05:37:26;6.10;;;5.50;;
77298;SDS011;66361;52.034;20.656;2023-11-22T05:41:31;7.32;;;6.70;;
77298;SDS011;66361;52.034;20.656;2023-11-22T05:45:34;9.95;;;7.40;;
77298;SDS011;66361;52.034;20.656;2023-11-22T05:49:38;6.25;;;5.68;;
77298;SDS011;66361;52.034;20.656;2023-11-22T05:53:41;10.20;;;5.88;;
77298;SDS011;66361;52.034;20.656;2023-11-22T05:57:45;6.80;;;6.10;;
77298;SDS011;66361;52.034;20.656;2023-11-22T06:01:48;6.57;;;6.00;;
77298;SDS011;66361;52.034;20.656;2023-11-22T06:05:51;12.60;;;11.70;;
77298;SDS011;66361;52.034;20.656;2023-11-22T06:09:54;7.57;;;6.97;;
77298;SDS011;66361;52.034;20.656;2023-11-22T06:13:58;6.65;;;6.05;;
77298;SDS011;66361;52.034;20.656;2023-11-22T06:18:01;11.52;;;7.28;;
77298;SDS011;66361;52.034;20.656;2023-11-22T06:22:04;14.15;;;9.45;;
77298;SDS011;66361;52.034;20.656;2023-11-22T06:26:08;8.18;;;7.30;;
77298;SDS011;66361;52.034;20.656;2023-11-22T06:34:17;6.95;;;6.35;;
77298;SDS011;66361;52.034;20.656;2023-11-22T06:38:20;8.82;;;8.02;;
77298;SDS011;66361;52.034;20.656;2023-11-22T06:42:23;11.93;;;6.30;;
77298;SDS011;66361;52.034;20.656;2023-11-22T06:46:28;8.50;;;6.53;;
77298;SDS011;66361;52.034;20.656;2023-11-22T06:54:33;5.90;;;5.30;;
77298;SDS011;66361;52.034;20.656;2023-11-22T06:58:39;7.22;;;6.35;;
77298;SDS011;66361;52.034;20.656;2023-11-22T07:02:43;11.63;;;7.28;;
77298;SDS011;66361;52.034;20.656;2023-11-22T07:06:47;11.40;;;8.88;;
77298;SDS011;66361;52.034;20.656;2023-11-22T07:10:50;10.38;;;8.27;;
77298;SDS011;66361;52.034;20.656;2023-11-22T07:14:53;10.75;;;7.18;;
77298;SDS011;66361;52.034;20.656;2023-11-22T07:18:58;7.82;;;6.38;;
77298;SDS011;66361;52.034;20.656;2023-11-22T07:23:02;7.80;;;6.70;;
77298;SDS011;66361;52.034;20.656;2023-11-22T07:27:04;10.50;;;8.10;;
77298;SDS011;66361;52.034;20.656;2023-11-22T07:31:08;6.75;;;5.60;;
77298;SDS011;66361;52.034;20.656;2023-11-22T07:35:14;9.05;;;6.75;;
77298;SDS011;66361;52.034;20.656;2023-11-22T07:39:17;5.35;;;4.68;;
77298;SDS011;66361;52.034;20.656;2023-11-22T07:43:21;7.03;;;6.25;;
77298;SDS011;66361;52.034;20.656;2023-11-22T07:47:24;8.52;;;6.05;;
77298;SDS011;66361;52.034;20.656;2023-11-22T07:51:29;7.85;;;5.93;;
77298;SDS011;66361;52.034;20.656;2023-11-22T07:55:32;7.45;;;5.85;;
77298;SDS011;66361;52.034;20.656;2023-11-22T07:59:36;7.88;;;5.72;;
77298;SDS011;66361;52.034;20.656;2023-11-22T08:03:41;7.07;;;6.25;;
77298;SDS011;66361;52.034;20.656;2023-11-22T08:07:49;7.05;;;6.13;;
77298;SDS011;66361;52.034;20.656;2023-11-22T08:11:53;9.18;;;6.65;;
77298;SDS011;66361;52.034;20.656;2023-11-22T08:15:56;6.78;;;6.15;;
77298;SDS011;66361;52.034;20.656;2023-11-22T08:19:59;6.90;;;4.45;;
77298;SDS011;66361;52.034;20.656;2023-11-22T08:24:15;5.18;;;4.65;;
77298;SDS011;66361;52.034;20.656;2023-11-22T08:28:26;9.40;;;6.40;;
77298;SDS011;66361;52.034;20.656;2023-11-22T08:32:30;8.68;;;5.72;;
77298;SDS011;66361;52.034;20.656;2023-11-22T08:36:33;9.05;;;6.70;;
77298;SDS011;66361;52.034;20.656;2023-11-22T08:40:40;8.35;;;5.53;;
77298;SDS011;66361;52.034;20.656;2023-11-22T08:44:43;7.38;;;5.78;;
77298;SDS011;66361;52.034;20.656;2023-11-22T08:48:48;7.00;;;6.05;;
77298;SDS011;66361;52.034;20.656;2023-11-22T08:56:59;5.50;;;4.15;;
77298;SDS011;66361;52.034;20.656;2023-11-22T09:01:02;7.60;;;6.05;;
77298;SDS011;66361;52.034;20.656;2023-11-22T09:05:06;7.97;;;6.13;;
77298;SDS011;66361;52.034;20.656;2023-11-22T09:09:11;9.20;;;7.45;;
77298;SDS011;66361;52.034;20.656;2023-11-22T09:13:18;7.10;;;5.57;;
77298;SDS011;66361;52.034;20.656;2023-11-22T09:17:22;6.90;;;5.03;;
77298;SDS011;66361;52.034;20.656;2023-11-22T09:21:25;7.25;;;5.40;;
77298;SDS011;66361;52.034;20.656;2023-11-22T09:25:28;6.97;;;4.72;;
77298;SDS011;66361;52.034;20.656;2023-11-22T09:33:35;9.52;;;5.70;;
77298;SDS011;66361;52.034;20.656;2023-11-22T09:37:39;5.53;;;4.95;;
77298;SDS011;66361;52.034;20.656;2023-11-22T09:41:43;6.85;;;5.80;;
77298;SDS011;66361;52.034;20.656;2023-11-22T09:45:48;8.88;;;8.07;;
77298;SDS011;66361;52.034;20.656;2023-11-22T09:49:56;5.50;;;3.80;;
77298;SDS011;66361;52.034;20.656;2023-11-22T09:54:06;7.53;;;6.10;;
77298;SDS011;66361;52.034;20.656;2023-11-22T09:58:13;5.53;;;4.38;;
77298;SDS011;66361;52.034;20.656;2023-11-22T10:02:20;5.47;;;4.95;;
77298;SDS011;66361;52.034;20.656;2023-11-22T10:10:34;5.25;;;4.75;;
77298;SDS011;66361;52.034;20.656;2023-11-22T10:14:38;4.25;;;3.85;;
77298;SDS011;66361;52.034;20.656;2023-11-22T10:18:44;6.75;;;5.40;;
77298;SDS011;66361;52.034;20.656;2023-11-22T10:22:49;5.35;;;4.85;;
77298;SDS011;66361;52.034;20.656;2023-11-22T10:26:51;5.82;;;4.18;;
77298;SDS011;66361;52.034;20.656;2023-11-22T10:30:54;5.03;;;4.07;;
77298;SDS011;66361;52.034;20.656;2023-11-22T10:34:59;9.30;;;4.88;;
77298;SDS011;66361;52.034;20.656;2023-11-22T10:39:02;7.50;;;5.95;;
77298;SDS011;66361;52.034;20.656;2023-11-22T10:43:08;6.18;;;5.57;;
77298;SDS011;66361;52.034;20.656;2023-11-22T10:47:13;5.72;;;5.22;;
77298;SDS011;66361;52.034;20.656;2023-11-22T10:51:20;5.35;;;4.32;;
77298;SDS011;66361;52.034;20.656;2023-11-22T10:55:26;6.72;;;4.63;;
77298;SDS011;66361;52.034;20.656;2023-11-22T10:59:30;5.28;;;4.85;;
77298;SDS011;66361;52.034;20.656;2023-11-22T11:03:37;5.30;;;4.78;;
77298;SDS011;66361;52.034;20.656;2023-11-22T11:07:47;4.72;;;4.32;;
77298;SDS011;66361;52.034;20.656;2023-11-22T11:11:52;7.75;;;5.55;;
77298;SDS011;66361;52.034;20.656;2023-11-22T11:15:55;6.25;;;5.35;;
77298;SDS011;66361;52.034;20.656;2023-11-22T11:19:59;5.88;;;4.55;;
77298;SDS011;66361;52.034;20.656;2023-11-22T11:24:04;9.60;;;4.53;;
77298;SDS011;66361;52.034;20.656;2023-11-22T11:28:09;5.18;;;4.80;;
77298;SDS011;66361;52.034;20.656;2023-11-22T11:32:15;5.30;;;4.80;;
77298;SDS011;66361;52.034;20.656;2023-11-22T11:36:33;5.82;;;4.35;;
77298;SDS011;66361;52.034;20.656;2023-11-22T11:40:41;6.70;;;4.43;;
77298;SDS011;66361;52.034;20.656;2023-11-22T11:44:51;7.50;;;5.10;;
77298;SDS011;66361;52.034;20.656;2023-11-22T11:49:07;4.97;;;4.15;;
77298;SDS011;66361;52.034;20.656;2023-11-22T11:53:18;4.88;;;4.38;;
77298;SDS011;66361;52.034;20.656;2023-11-22T11:57:23;7.10;;;4.57;;
77298;SDS011;66361;52.034;20.656;2023-11-22T12:01:27;6.28;;;5.22;;
77298;SDS011;66361;52.034;20.656;2023-11-22T12:05:34;5.18;;;4.25;;
77298;SDS011;66361;52.034;20.656;2023-11-22T12:09:40;4.85;;;4.40;;
77298;SDS011;66361;52.034;20.656;2023-11-22T12:13:45;4.50;;;4.03;;
77298;SDS011;66361;52.034;20.656;2023-11-22T12:17:50;3.42;;;3.13;;
77298;SDS011;66361;52.034;20.656;2023-11-22T12:21:55;4.80;;;4.40;;
77298;SDS011;66361;52.034;20.656;2023-11-22T12:25:59;4.53;;;4.07;;
77298;SDS011;66361;52.034;20.656;2023-11-22T12:30:07;7.13;;;6.55;;
77298;SDS011;66361;52.034;20.656;2023-11-22T12:34:11;5.95;;;4.00;;
77298;SDS011;66361;52.034;20.656;2023-11-22T12:38:14;6.38;;;4.43;;
77298;SDS011;66361;52.034;20.656;2023-11-22T12:42:18;6.78;;;4.78;;
77298;SDS011;66361;52.034;20.656;2023-11-22T12:46:23;7.57;;;6.80;;
77298;SDS011;66361;52.034;20.656;2023-11-22T12:50:31;7.65;;;4.72;;
77298;SDS011;66361;52.034;20.656;2023-11-22T12:54:36;7.05;;;6.28;;
77298;SDS011;66361;52.034;20.656;2023-11-22T12:58:40;5.55;;;5.05;;
77298;SDS011;66361;52.034;20.656;2023-11-22T13:02:44;4.00;;;3.42;;
77298;SDS011;66361;52.034;20.656;2023-11-22T13:07:03;5.75;;;4.28;;
77298;SDS011;66361;52.034;20.656;2023-11-22T13:11:05;4.35;;;3.50;;
77298;SDS011;66361;52.034;20.656;2023-11-22T13:15:09;5.30;;;4.25;;
77298;SDS011;66361;52.034;20.656;2023-11-22T13:19:14;5.15;;;4.65;;
77298;SDS011;66361;52.034;20.656;2023-11-22T13:23:18;7.50;;;6.28;;
77298;SDS011;66361;52.034;20.656;2023-11-22T13:27:22;5.57;;;4.68;;
77298;SDS011;66361;52.034;20.656;2023-11-22T13:31:25;9.23;;;5.50;;
77298;SDS011;66361;52.034;20.656;2023-11-22T13:35:29;6.47;;;5.75;;
77298;SDS011;66361;52.034;20.656;2023-11-22T13:39:33;8.52;;;6.50;;
77298;SDS011;66361;52.034;20.656;2023-11-22T13:43:36;6.57;;;5.43;;
77298;SDS011;66361;52.034;20.656;2023-11-22T13:47:44;5.68;;;4.30;;
77298;SDS011;66361;52.034;20.656;2023-11-22T13:51:51;5.88;;;5.20;;
77298;SDS011;66361;52.034;20.656;2023-11-22T13:55:54;7.63;;;5.28;;
77298;SDS011;66361;52.034;20.656;2023-11-22T13:59:59;7.55;;;6.25;;
77298;SDS011;66361;52.034;20.656;2023-11-22T14:04:03;8.43;;;5.88;;
77298;SDS011;66361;52.034;20.656;2023-11-22T14:08:08;14.68;;;7.15;;
77298;SDS011;66361;52.034;20.656;2023-11-22T14:12:11;8.85;;;7.35;;
77298;SDS011;66361;52.034;20.656;2023-11-22T14:16:14;11.05;;;7.32;;
77298;SDS011;66361;52.034;20.656;2023-11-22T14:20:18;11.38;;;8.55;;
77298;SDS011;66361;52.034;20.656;2023-11-22T14:24:24;12.57;;;8.40;;
77298;SDS011;66361;52.034;20.656;2023-11-22T14:28:28;11.70;;;8.73;;
77298;SDS011;66361;52.034;20.656;2023-11-22T14:32:31;11.48;;;8.70;;
77298;SDS011;66361;52.034;20.656;2023-11-22T14:36:36;12.75;;;8.27;;
77298;SDS011;66361;52.034;20.656;2023-11-22T14:40:40;16.30;;;14.82;;
77298;SDS011;66361;52.034;20.656;2023-11-22T14:44:43;10.43;;;8.05;;
77298;SDS011;66361;52.034;20.656;2023-11-22T14:48:46;16.10;;;11.30;;
77298;SDS011;66361;52.034;20.656;2023-11-22T14:52:50;15.20;;;10.05;;
77298;SDS011;66361;52.034;20.656;2023-11-22T14:56:55;11.80;;;8.13;;
77298;SDS011;66361;52.034;20.656;2023-11-22T15:01:03;12.90;;;10.57;;
77298;SDS011;66361;52.034;20.656;2023-11-22T15:05:10;21.02;;;13.82;;
77298;SDS011;66361;52.034;20.656;2023-11-22T15:09:13;16.20;;;11.63;;
77298;SDS011;66361;52.034;20.656;2023-11-22T15:13:18;22.92;;;13.75;;
77298;SDS011;66361;52.034;20.656;2023-11-22T15:17:21;34.17;;;18.00;;
77298;SDS011;66361;52.034;20.656;2023-11-22T15:21:25;31.52;;;20.35;;
77298;SDS011;66361;52.034;20.656;2023-11-22T15:25:27;33.38;;;20.95;;
77298;SDS011;66361;52.034;20.656;2023-11-22T15:29:32;40.70;;;20.55;;
77298;SDS011;66361;52.034;20.656;2023-11-22T15:33:35;46.40;;;23.65;;
77298;SDS011;66361;52.034;20.656;2023-11-22T15:37:39;54.33;;;31.65;;
77298;SDS011;66361;52.034;20.656;2023-11-22T15:41:43;64.65;;;31.38;;
77298;SDS011;66361;52.034;20.656;2023-11-22T15:45:47;46.28;;;27.50;;
77298;SDS011;66361;52.034;20.656;2023-11-22T15:49:50;40.40;;;23.15;;
77298;SDS011;66361;52.034;20.656;2023-11-22T15:57:57;32.60;;;19.67;;
77298;SDS011;66361;52.034;20.656;2023-11-22T16:02:04;49.47;;;21.27;;
77298;SDS011;66361;52.034;20.656;2023-11-22T16:06:09;36.28;;;22.35;;
77298;SDS011;66361;52.034;20.656;2023-11-22T16:10:14;26.67;;;16.25;;
77298;SDS011;66361;52.034;20.656;2023-11-22T16:14:18;24.70;;;15.40;;
77298;SDS011;66361;52.034;20.656;2023-11-22T16:18:23;25.08;;;15.70;;
77298;SDS011;66361;52.034;20.656;2023-11-22T16:22:28;28.05;;;18.23;;
77298;SDS011;66361;52.034;20.656;2023-11-22T16:26:31;27.27;;;16.52;;
77298;SDS011;66361;52.034;20.656;2023-11-22T16:30:34;28.30;;;16.38;;
77298;SDS011;66361;52.034;20.656;2023-11-22T16:34:41;28.75;;;16.55;;
77298;SDS011;66361;52.034;20.656;2023-11-22T16:38:44;23.90;;;14.70;;
77298;SDS011;66361;52.034;20.656;2023-11-22T16:42:47;22.45;;;15.75;;
77298;SDS011;66361;52.034;20.656;2023-11-22T16:46:50;26.63;;;17.98;;
77298;SDS011;66361;52.034;20.656;2023-11-22T16:50:55;30.80;;;17.92;;
77298;SDS011;66361;52.034;20.656;2023-11-22T16:54:59;28.20;;;17.08;;
77298;SDS011;66361;52.034;20.656;2023-11-22T16:59:02;23.42;;;18.27;;
77298;SDS011;66361;52.034;20.656;2023-11-22T17:03:10;30.02;;;19.63;;
77298;SDS011;66361;52.034;20.656;2023-11-22T17:07:21;35.38;;;19.63;;
77298;SDS011;66361;52.034;20.656;2023-11-22T17:11:24;39.05;;;20.05;;
77298;SDS011;66361;52.034;20.656;2023-11-22T17:15:27;41.35;;;26.25;;
77298;SDS011;66361;52.034;20.656;2023-11-22T17:19:31;39.90;;;23.30;;
77298;SDS011;66361;52.034;20.656;2023-11-22T17:23:35;37.33;;;22.35;;
77298;SDS011;66361;52.034;20.656;2023-11-22T17:27:41;35.38;;;22.33;;
77298;SDS011;66361;52.034;20.656;2023-11-22T17:31:55;32.20;;;18.00;;
77298;SDS011;66361;52.034;20.656;2023-11-22T17:35:58;60.65;;;34.60;;
77298;SDS011;66361;52.034;20.656;2023-11-22T17:40:03;30.10;;;19.70;;
77298;SDS011;66361;52.034;20.656;2023-11-22T17:44:07;35.13;;;20.83;;
77298;SDS011;66361;52.034;20.656;2023-11-22T17:48:10;46.40;;;24.15;;
77298;SDS011;66361;52.034;20.656;2023-11-22T17:56:19;30.67;;;22.38;;
77298;SDS011;66361;52.034;20.656;2023-11-22T18:00:23;34.35;;;18.98;;
77298;SDS011;66361;52.034;20.656;2023-11-22T18:04:27;32.72;;;19.60;;
77298;SDS011;66361;52.034;20.656;2023-11-22T18:08:30;40.33;;;24.67;;
77298;SDS011;66361;52.034;20.656;2023-11-22T18:12:35;37.33;;;26.60;;
77298;SDS011;66361;52.034;20.656;2023-11-22T18:16:39;41.40;;;23.40;;
77298;SDS011;66361;52.034;20.656;2023-11-22T18:20:43;37.05;;;22.55;;
77298;SDS011;66361;52.034;20.656;2023-11-22T18:24:46;43.72;;;27.08;;
77298;SDS011;66361;52.034;20.656;2023-11-22T18:28:51;31.70;;;20.90;;
77298;SDS011;66361;52.034;20.656;2023-11-22T18:32:54;35.22;;;23.65;;
77298;SDS011;66361;52.034;20.656;2023-11-22T18:36:58;39.53;;;22.70;;
77298;SDS011;66361;52.034;20.656;2023-11-22T18:41:04;34.28;;;25.13;;
77298;SDS011;66361;52.034;20.656;2023-11-22T18:45:11;38.75;;;23.30;;
77298;SDS011;66361;52.034;20.656;2023-11-22T18:49:15;39.17;;;22.10;;
77298;SDS011;66361;52.034;20.656;2023-11-22T18:53:18;37.50;;;25.00;;
77298;SDS011;66361;52.034;20.656;2023-11-22T18:57:21;34.25;;;22.42;;
77298;SDS011;66361;52.034;20.656;2023-11-22T19:01:27;36.72;;;21.45;;
77298;SDS011;66361;52.034;20.656;2023-11-22T19:05:30;40.33;;;23.70;;
77298;SDS011;66361;52.034;20.656;2023-11-22T19:09:33;37.25;;;23.48;;
77298;SDS011;66361;52.034;20.656;2023-11-22T19:13:40;37.25;;;22.02;;
77298;SDS011;66361;52.034;20.656;2023-11-22T19:17:45;32.40;;;23.40;;
77298;SDS011;66361;52.034;20.656;2023-11-22T19:21:48;44.92;;;24.70;;
77298;SDS011;66361;52.034;20.656;2023-11-22T19:25:52;40.47;;;23.63;;
77298;SDS011;66361;52.034;20.656;2023-11-22T19:30:00;32.90;;;20.92;;
77298;SDS011;66361;52.034;20.656;2023-11-22T19:34:07;32.33;;;19.85;;
77298;SDS011;66361;52.034;20.656;2023-11-22T19:38:10;30.88;;;20.98;;
77298;SDS011;66361;52.034;20.656;2023-11-22T19:42:14;28.52;;;20.20;;
77298;SDS011;66361;52.034;20.656;2023-11-22T19:46:17;42.75;;;21.80;;
77298;SDS011;66361;52.034;20.656;2023-11-22T19:50:22;39.80;;;21.98;;
77298;SDS011;66361;52.034;20.656;2023-11-22T19:54:26;32.33;;;20.88;;
77298;SDS011;66361;52.034;20.656;2023-11-22T19:58:29;35.10;;;19.45;;
77298;SDS011;66361;52.034;20.656;2023-11-22T20:02:32;37.05;;;22.42;;
77298;SDS011;66361;52.034;20.656;2023-11-22T20:06:37;35.25;;;20.33;;
77298;SDS011;66361;52.034;20.656;2023-11-22T20:10:41;30.92;;;21.00;;
77298;SDS011;66361;52.034;20.656;2023-11-22T20:14:45;40.00;;;25.08;;
77298;SDS011;66361;52.034;20.656;2023-11-22T20:18:48;40.78;;;25.75;;
77298;SDS011;66361;52.034;20.656;2023-11-22T20:22:52;27.55;;;18.27;;
77298;SDS011;66361;52.034;20.656;2023-11-22T20:26:55;29.13;;;18.92;;
77298;SDS011;66361;52.034;20.656;2023-11-22T20:30:59;30.55;;;18.83;;
77298;SDS011;66361;52.034;20.656;2023-11-22T20:35:04;33.63;;;16.33;;
77298;SDS011;66361;52.034;20.656;2023-11-22T20:39:08;32.13;;;18.55;;
77298;SDS011;66361;52.034;20.656;2023-11-22T20:43:11;51.90;;;21.77;;
77298;SDS011;66361;52.034;20.656;2023-11-22T20:47:15;29.20;;;16.60;;
77298;SDS011;66361;52.034;20.656;2023-11-22T20:51:18;35.20;;;16.60;;
77298;SDS011;66361;52.034;20.656;2023-11-22T20:55:23;31.23;;;16.65;;
77298;SDS011;66361;52.034;20.656;2023-11-22T20:59:30;31.25;;;16.55;;
77298;SDS011;66361;52.034;20.656;2023-11-22T21:03:33;28.92;;;15.23;;
77298;SDS011;66361;52.034;20.656;2023-11-22T21:07:36;22.83;;;15.80;;
77298;SDS011;66361;52.034;20.656;2023-11-22T21:11:42;29.92;;;16.08;;
77298;SDS011;66361;52.034;20.656;2023-11-22T21:15:46;23.48;;;16.35;;
77298;SDS011;66361;52.034;20.656;2023-11-22T21:19:49;38.10;;;19.13;;
77298;SDS011;66361;52.034;20.656;2023-11-22T21:23:52;28.10;;;17.27;;
77298;SDS011;66361;52.034;20.656;2023-11-22T21:27:58;17.17;;;14.20;;
77298;SDS011;66361;52.034;20.656;2023-11-22T21:32:01;32.25;;;17.50;;
77298;SDS011;66361;52.034;20.656;2023-11-22T21:36:09;20.60;;;11.15;;
77298;SDS011;66361;52.034;20.656;2023-11-22T21:40:13;22.92;;;14.60;;
77298;SDS011;66361;52.034;20.656;2023-11-22T21:44:19;20.02;;;14.55;;
77298;SDS011;66361;52.034;20.656;2023-11-22T21:48:22;24.50;;;13.68;;
77298;SDS011;66361;52.034;20.656;2023-11-22T21:52:26;23.48;;;15.02;;
77298;SDS011;66361;52.034;20.656;2023-11-22T21:56:29;24.13;;;14.60;;
77298;SDS011;66361;52.034;20.656;2023-11-22T22:00:36;24.83;;;13.80;;
77298;SDS011;66361;52.034;20.656;2023-11-22T22:04:39;20.75;;;13.52;;
77298;SDS011;66361;52.034;20.656;2023-11-22T22:08:43;17.38;;;12.27;;
77298;SDS011;66361;52.034;20.656;2023-11-22T22:12:49;22.95;;;14.50;;
77298;SDS011;66361;52.034;20.656;2023-11-22T22:16:53;23.55;;;13.05;;
77298;SDS011;66361;52.034;20.656;2023-11-22T22:20:56;17.85;;;12.18;;
77298;SDS011;66361;52.034;20.656;2023-11-22T22:25:00;15.93;;;11.93;;
77298;SDS011;66361;52.034;20.656;2023-11-22T22:29:05;17.10;;;12.52;;
77298;SDS011;66361;52.034;20.656;2023-11-22T22:33:10;23.83;;;13.27;;
77298;SDS011;66361;52.034;20.656;2023-11-22T22:37:14;20.75;;;12.57;;
77298;SDS011;66361;52.034;20.656;2023-11-22T22:41:18;21.58;;;11.30;;
77298;SDS011;66361;52.034;20.656;2023-11-22T22:45:21;21.65;;;17.40;;
77298;SDS011;66361;52.034;20.656;2023-11-22T22:49:26;20.35;;;11.27;;
77298;SDS011;66361;52.034;20.656;2023-11-22T22:53:30;18.75;;;11.82;;
77298;SDS011;66361;52.034;20.656;2023-11-22T22:57:33;17.55;;;10.57;;
77298;SDS011;66361;52.034;20.656;2023-11-22T23:01:36;19.60;;;12.25;;
77298;SDS011;66361;52.034;20.656;2023-11-22T23:05:41;20.55;;;13.00;;
77298;SDS011;66361;52.034;20.656;2023-11-22T23:09:44;22.45;;;16.70;;
77298;SDS011;66361;52.034;20.656;2023-11-22T23:13:48;12.93;;;9.10;;
77298;SDS011;66361;52.034;20.656;2023-11-22T23:17:51;22.20;;;14.50;;
77298;SDS011;66361;52.034;20.656;2023-11-22T23:21:57;20.70;;;14.88;;
77298;SDS011;66361;52.034;20.656;2023-11-22T23:26:05;22.70;;;13.15;;
77298;SDS011;66361;52.034;20.656;2023-11-22T23:30:08;24.25;;;14.10;;
77298;SDS011;66361;52.034;20.656;2023-11-22T23:34:13;25.02;;;15.00;;
77298;SDS011;66361;52.034;20.656;2023-11-22T23:38:17;17.77;;;12.75;;
77298;SDS011;66361;52.034;20.656;2023-11-22T23:42:22;25.85;;;14.02;;
77298;SDS011;66361;52.034;20.656;2023-11-22T23:46:25;19.73;;;12.95;;
77298;SDS011;66361;52.034;20.656;2023-11-22T23:50:30;24.73;;;16.20;;
77298;SDS011;66361;52.034;20.656;2023-11-22T23:54:35;26.02;;;15.90;;
77298;SDS011;66361;52.034;20.656;2023-11-22T23:58:39;26.25;;;16.10;;
